sensor_id;sensor_type;location;lat;lon;timestamp;P1;durP1;ratioP1;P2;durP2;ratioP2
63499;SDS011;49654;51.142;14.924;2023-01-29T00:00:15;14.70;;;9.90;;
63499;SDS011;49654;51.142;14.924;2023-01-29T00:03:17;15.80;;;9.90;;
63499;SDS011;49654;51.142;14.924;2023-01-29T00:19:46;20.93;;;12.10;;
63499;SDS011;49654;51.142;14.924;2023-01-29T00:22:28;18.27;;;11.97;;
63499;SDS011;49654;51.142;14.924;2023-01-29T00:44:59;15.43;;;10.60;;
63499;SDS011;49654;51.142;14.924;2023-01-29T01:22:49;14.17;;;9.83;;
63499;SDS011;49654;51.142;14.924;2023-01-29T01:25:16;14.73;;;9.90;;
63499;SDS011;49654;51.142;14.924;2023-01-29T01:27:43;16.43;;;10.07;;
63499;SDS011;49654;51.142;14.924;2023-01-29T01:30:11;14.70;;;9.50;;
63499;SDS011;49654;51.142;14.924;2023-01-29T01:32:40;14.83;;;9.70;;
63499;SDS011;49654;51.142;14.924;2023-01-29T01:35:08;13.77;;;9.97;;
63499;SDS011;49654;51.142;14.924;2023-01-29T01:37:36;13.90;;;10.07;;
63499;SDS011;49654;51.142;14.924;2023-01-29T01:40:06;13.47;;;9.40;;
63499;SDS011;49654;51.142;14.924;2023-01-29T01:42:37;13.80;;;9.10;;
63499;SDS011;49654;51.142;14.924;2023-01-29T01:45:06;14.70;;;9.90;;
63499;SDS011;49654;51.142;14.924;2023-01-29T01:47:43;15.60;;;9.80;;
63499;SDS011;49654;51.142;14.924;2023-01-29T01:50:14;14.03;;;8.67;;
63499;SDS011;49654;51.142;14.924;2023-01-29T01:52:44;11.77;;;8.33;;
63499;SDS011;49654;51.142;14.924;2023-01-29T01:55:16;12.10;;;9.20;;
63499;SDS011;49654;51.142;14.924;2023-01-29T01:57:47;12.03;;;8.97;;
63499;SDS011;49654;51.142;14.924;2023-01-29T02:00:18;12.77;;;8.80;;
63499;SDS011;49654;51.142;14.924;2023-01-29T02:02:47;11.80;;;8.00;;
63499;SDS011;49654;51.142;14.924;2023-01-29T02:05:32;13.90;;;8.30;;
63499;SDS011;49654;51.142;14.924;2023-01-29T02:08:20;12.20;;;8.17;;
63499;SDS011;49654;51.142;14.924;2023-01-29T02:11:14;11.77;;;8.03;;
63499;SDS011;49654;51.142;14.924;2023-01-29T02:13:42;10.57;;;7.67;;
63499;SDS011;49654;51.142;14.924;2023-01-29T02:16:09;12.80;;;8.07;;
63499;SDS011;49654;51.142;14.924;2023-01-29T02:18:36;11.87;;;7.87;;
63499;SDS011;49654;51.142;14.924;2023-01-29T02:21:06;12.53;;;8.73;;
63499;SDS011;49654;51.142;14.924;2023-01-29T02:24:10;11.50;;;8.13;;
63499;SDS011;49654;51.142;14.924;2023-01-29T02:26:56;10.57;;;7.73;;
63499;SDS011;49654;51.142;14.924;2023-01-29T02:29:33;12.53;;;8.17;;
63499;SDS011;49654;51.142;14.924;2023-01-29T02:32:14;12.07;;;8.20;;
63499;SDS011;49654;51.142;14.924;2023-01-29T02:34:52;10.93;;;8.17;;
63499;SDS011;49654;51.142;14.924;2023-01-29T02:37:45;16.73;;;9.13;;
63499;SDS011;49654;51.142;14.924;2023-01-29T02:40:22;11.10;;;8.80;;
63499;SDS011;49654;51.142;14.924;2023-01-29T02:42:56;14.53;;;8.90;;
63499;SDS011;49654;51.142;14.924;2023-01-29T02:45:34;14.20;;;8.63;;
63499;SDS011;49654;51.142;14.924;2023-01-29T02:48:09;18.10;;;9.80;;
63499;SDS011;49654;51.142;14.924;2023-01-29T02:50:43;12.57;;;8.90;;
63499;SDS011;49654;51.142;14.924;2023-01-29T02:53:14;13.97;;;8.87;;
63499;SDS011;49654;51.142;14.924;2023-01-29T02:55:45;12.70;;;9.10;;
63499;SDS011;49654;51.142;14.924;2023-01-29T02:58:19;15.37;;;10.10;;
63499;SDS011;49654;51.142;14.924;2023-01-29T03:00:53;15.47;;;9.90;;
63499;SDS011;49654;51.142;14.924;2023-01-29T03:03:24;14.63;;;9.57;;
63499;SDS011;49654;51.142;14.924;2023-01-29T03:05:57;15.10;;;10.50;;
63499;SDS011;49654;51.142;14.924;2023-01-29T03:08:31;14.40;;;10.20;;
63499;SDS011;49654;51.142;14.924;2023-01-29T03:11:07;18.00;;;11.37;;
63499;SDS011;49654;51.142;14.924;2023-01-29T03:13:40;17.40;;;11.60;;
63499;SDS011;49654;51.142;14.924;2023-01-29T03:16:15;18.03;;;11.20;;
63499;SDS011;49654;51.142;14.924;2023-01-29T03:18:48;17.50;;;11.90;;
63499;SDS011;49654;51.142;14.924;2023-01-29T03:21:22;17.07;;;11.60;;
63499;SDS011;49654;51.142;14.924;2023-01-29T03:24:12;17.90;;;11.87;;
63499;SDS011;49654;51.142;14.924;2023-01-29T03:27:00;20.57;;;12.53;;
63499;SDS011;49654;51.142;14.924;2023-01-29T03:29:47;16.87;;;11.53;;
63499;SDS011;49654;51.142;14.924;2023-01-29T03:32:36;20.50;;;12.60;;
63499;SDS011;49654;51.142;14.924;2023-01-29T03:35:04;18.43;;;12.63;;
63499;SDS011;49654;51.142;14.924;2023-01-29T03:37:35;18.07;;;12.30;;
63499;SDS011;49654;51.142;14.924;2023-01-29T03:40:05;18.37;;;12.37;;
63499;SDS011;49654;51.142;14.924;2023-01-29T03:42:37;18.03;;;12.10;;
63499;SDS011;49654;51.142;14.924;2023-01-29T03:45:15;18.17;;;12.30;;
63499;SDS011;49654;51.142;14.924;2023-01-29T03:47:50;17.60;;;12.10;;
63499;SDS011;49654;51.142;14.924;2023-01-29T03:50:29;18.00;;;12.07;;
63499;SDS011;49654;51.142;14.924;2023-01-29T03:53:03;20.73;;;13.03;;
63499;SDS011;49654;51.142;14.924;2023-01-29T03:55:34;18.23;;;12.13;;
63499;SDS011;49654;51.142;14.924;2023-01-29T03:58:08;18.37;;;11.27;;
63499;SDS011;49654;51.142;14.924;2023-01-29T04:00:49;20.03;;;11.83;;
63499;SDS011;49654;51.142;14.924;2023-01-29T04:03:22;16.43;;;11.23;;
63499;SDS011;49654;51.142;14.924;2023-01-29T04:05:53;19.57;;;12.10;;
63499;SDS011;49654;51.142;14.924;2023-01-29T04:08:35;21.43;;;11.80;;
63499;SDS011;49654;51.142;14.924;2023-01-29T04:11:08;17.97;;;11.93;;
63499;SDS011;49654;51.142;14.924;2023-01-29T04:13:38;20.77;;;12.27;;
63499;SDS011;49654;51.142;14.924;2023-01-29T04:16:06;19.50;;;11.87;;
63499;SDS011;49654;51.142;14.924;2023-01-29T04:18:40;19.33;;;13.47;;
63499;SDS011;49654;51.142;14.924;2023-01-29T04:21:10;18.80;;;12.37;;
63499;SDS011;49654;51.142;14.924;2023-01-29T04:23:38;19.13;;;12.40;;
63499;SDS011;49654;51.142;14.924;2023-01-29T04:29:07;18.87;;;12.53;;
63499;SDS011;49654;51.142;14.924;2023-01-29T04:31:43;19.33;;;12.63;;
63499;SDS011;49654;51.142;14.924;2023-01-29T04:34:22;18.67;;;11.47;;
63499;SDS011;49654;51.142;14.924;2023-01-29T04:36:57;19.87;;;12.40;;
63499;SDS011;49654;51.142;14.924;2023-01-29T04:39:39;18.97;;;12.67;;
63499;SDS011;49654;51.142;14.924;2023-01-29T04:42:16;19.87;;;12.30;;
63499;SDS011;49654;51.142;14.924;2023-01-29T04:44:53;17.43;;;11.80;;
63499;SDS011;49654;51.142;14.924;2023-01-29T04:47:28;19.80;;;12.47;;
63499;SDS011;49654;51.142;14.924;2023-01-29T04:50:05;19.17;;;12.13;;
63499;SDS011;49654;51.142;14.924;2023-01-29T04:52:44;18.37;;;11.17;;
63499;SDS011;49654;51.142;14.924;2023-01-29T04:55:18;16.93;;;11.17;;
63499;SDS011;49654;51.142;14.924;2023-01-29T04:57:51;20.27;;;11.87;;
63499;SDS011;49654;51.142;14.924;2023-01-29T05:00:25;16.10;;;11.10;;
63499;SDS011;49654;51.142;14.924;2023-01-29T05:02:56;16.37;;;11.13;;
63499;SDS011;49654;51.142;14.924;2023-01-29T05:05:27;21.40;;;12.07;;
63499;SDS011;49654;51.142;14.924;2023-01-29T05:07:55;16.37;;;11.27;;
63499;SDS011;49654;51.142;14.924;2023-01-29T05:10:24;17.93;;;11.40;;
63499;SDS011;49654;51.142;14.924;2023-01-29T05:12:53;17.77;;;11.67;;
63499;SDS011;49654;51.142;14.924;2023-01-29T05:15:27;18.53;;;12.20;;
63499;SDS011;49654;51.142;14.924;2023-01-29T05:17:59;18.43;;;12.00;;
63499;SDS011;49654;51.142;14.924;2023-01-29T05:20:29;18.00;;;12.70;;
63499;SDS011;49654;51.142;14.924;2023-01-29T05:22:58;19.30;;;12.20;;
63499;SDS011;49654;51.142;14.924;2023-01-29T05:25:26;19.20;;;12.80;;
63499;SDS011;49654;51.142;14.924;2023-01-29T05:27:54;20.30;;;12.93;;
63499;SDS011;49654;51.142;14.924;2023-01-29T05:30:31;23.70;;;13.77;;
63499;SDS011;49654;51.142;14.924;2023-01-29T05:32:59;22.77;;;14.00;;
63499;SDS011;49654;51.142;14.924;2023-01-29T05:35:26;21.73;;;13.40;;
63499;SDS011;49654;51.142;14.924;2023-01-29T05:37:55;24.27;;;14.27;;
63499;SDS011;49654;51.142;14.924;2023-01-29T05:40:22;21.80;;;14.27;;
63499;SDS011;49654;51.142;14.924;2023-01-29T05:42:50;22.03;;;14.37;;
63499;SDS011;49654;51.142;14.924;2023-01-29T05:45:17;21.43;;;14.33;;
63499;SDS011;49654;51.142;14.924;2023-01-29T05:47:44;20.07;;;13.43;;
63499;SDS011;49654;51.142;14.924;2023-01-29T05:50:12;23.27;;;14.10;;
63499;SDS011;49654;51.142;14.924;2023-01-29T05:52:41;20.97;;;13.53;;
63499;SDS011;49654;51.142;14.924;2023-01-29T05:55:08;22.47;;;14.50;;
63499;SDS011;49654;51.142;14.924;2023-01-29T05:57:36;22.53;;;14.77;;
63499;SDS011;49654;51.142;14.924;2023-01-29T06:00:03;24.30;;;14.13;;
63499;SDS011;49654;51.142;14.924;2023-01-29T06:02:31;20.17;;;13.60;;
63499;SDS011;49654;51.142;14.924;2023-01-29T06:04:58;20.43;;;13.13;;
63499;SDS011;49654;51.142;14.924;2023-01-29T06:07:25;20.17;;;13.47;;
63499;SDS011;49654;51.142;14.924;2023-01-29T06:09:53;24.47;;;14.50;;
63499;SDS011;49654;51.142;14.924;2023-01-29T06:12:20;23.53;;;14.03;;
63499;SDS011;49654;51.142;14.924;2023-01-29T06:14:47;21.87;;;13.87;;
63499;SDS011;49654;51.142;14.924;2023-01-29T06:17:14;21.70;;;14.33;;
63499;SDS011;49654;51.142;14.924;2023-01-29T06:19:41;24.13;;;14.90;;
63499;SDS011;49654;51.142;14.924;2023-01-29T06:22:08;20.20;;;13.83;;
63499;SDS011;49654;51.142;14.924;2023-01-29T06:24:35;23.77;;;15.70;;
63499;SDS011;49654;51.142;14.924;2023-01-29T06:27:04;22.27;;;14.40;;
63499;SDS011;49654;51.142;14.924;2023-01-29T06:29:31;19.60;;;14.03;;
63499;SDS011;49654;51.142;14.924;2023-01-29T06:31:58;19.67;;;13.33;;
63499;SDS011;49654;51.142;14.924;2023-01-29T06:34:25;19.70;;;12.97;;
63499;SDS011;49654;51.142;14.924;2023-01-29T06:36:51;19.53;;;13.93;;
63499;SDS011;49654;51.142;14.924;2023-01-29T06:39:19;19.73;;;13.40;;
63499;SDS011;49654;51.142;14.924;2023-01-29T06:41:46;21.00;;;14.93;;
63499;SDS011;49654;51.142;14.924;2023-01-29T06:44:14;20.17;;;13.63;;
63499;SDS011;49654;51.142;14.924;2023-01-29T06:46:41;20.67;;;14.47;;
63499;SDS011;49654;51.142;14.924;2023-01-29T06:49:08;19.90;;;14.07;;
63499;SDS011;49654;51.142;14.924;2023-01-29T06:51:35;24.37;;;14.17;;
63499;SDS011;49654;51.142;14.924;2023-01-29T06:54:02;22.20;;;15.17;;
63499;SDS011;49654;51.142;14.924;2023-01-29T06:56:30;21.07;;;13.77;;
63499;SDS011;49654;51.142;14.924;2023-01-29T06:58:57;21.47;;;14.13;;
63499;SDS011;49654;51.142;14.924;2023-01-29T07:01:26;19.33;;;13.53;;
63499;SDS011;49654;51.142;14.924;2023-01-29T07:03:53;19.67;;;13.27;;
63499;SDS011;49654;51.142;14.924;2023-01-29T07:06:20;19.47;;;13.80;;
63499;SDS011;49654;51.142;14.924;2023-01-29T07:08:47;20.93;;;13.27;;
63499;SDS011;49654;51.142;14.924;2023-01-29T07:11:14;22.20;;;14.00;;
63499;SDS011;49654;51.142;14.924;2023-01-29T07:13:41;23.73;;;13.57;;
63499;SDS011;49654;51.142;14.924;2023-01-29T07:16:08;20.57;;;14.00;;
63499;SDS011;49654;51.142;14.924;2023-01-29T07:18:36;20.00;;;13.43;;
63499;SDS011;49654;51.142;14.924;2023-01-29T07:21:03;20.20;;;14.50;;
63499;SDS011;49654;51.142;14.924;2023-01-29T07:23:31;21.97;;;14.57;;
63499;SDS011;49654;51.142;14.924;2023-01-29T07:25:59;22.03;;;14.53;;
63499;SDS011;49654;51.142;14.924;2023-01-29T07:28:27;21.23;;;14.23;;
63499;SDS011;49654;51.142;14.924;2023-01-29T07:30:55;20.43;;;13.57;;
63499;SDS011;49654;51.142;14.924;2023-01-29T07:33:22;21.13;;;14.03;;
63499;SDS011;49654;51.142;14.924;2023-01-29T07:35:51;19.23;;;13.17;;
63499;SDS011;49654;51.142;14.924;2023-01-29T07:38:18;20.90;;;14.17;;
63499;SDS011;49654;51.142;14.924;2023-01-29T07:40:45;18.57;;;13.33;;
63499;SDS011;49654;51.142;14.924;2023-01-29T07:43:12;20.67;;;13.70;;
63499;SDS011;49654;51.142;14.924;2023-01-29T07:45:39;19.80;;;13.97;;
63499;SDS011;49654;51.142;14.924;2023-01-29T07:48:08;19.87;;;14.20;;
63499;SDS011;49654;51.142;14.924;2023-01-29T07:50:37;19.33;;;13.90;;
63499;SDS011;49654;51.142;14.924;2023-01-29T07:53:06;18.80;;;12.87;;
63499;SDS011;49654;51.142;14.924;2023-01-29T07:55:42;21.60;;;14.77;;
63499;SDS011;49654;51.142;14.924;2023-01-29T07:58:10;19.10;;;13.50;;
63499;SDS011;49654;51.142;14.924;2023-01-29T08:00:38;23.20;;;14.53;;
63499;SDS011;49654;51.142;14.924;2023-01-29T08:03:05;19.93;;;13.77;;
63499;SDS011;49654;51.142;14.924;2023-01-29T08:05:35;20.30;;;14.03;;
63499;SDS011;49654;51.142;14.924;2023-01-29T08:08:02;21.10;;;13.60;;
63499;SDS011;49654;51.142;14.924;2023-01-29T08:10:31;20.40;;;13.80;;
63499;SDS011;49654;51.142;14.924;2023-01-29T08:12:59;23.10;;;14.83;;
63499;SDS011;49654;51.142;14.924;2023-01-29T08:15:27;18.83;;;13.83;;
63499;SDS011;49654;51.142;14.924;2023-01-29T08:17:54;20.37;;;13.87;;
63499;SDS011;49654;51.142;14.924;2023-01-29T08:20:21;20.03;;;14.00;;
63499;SDS011;49654;51.142;14.924;2023-01-29T08:22:48;22.27;;;14.87;;
63499;SDS011;49654;51.142;14.924;2023-01-29T08:25:15;20.90;;;14.23;;
63499;SDS011;49654;51.142;14.924;2023-01-29T08:27:44;18.83;;;13.17;;
63499;SDS011;49654;51.142;14.924;2023-01-29T08:30:11;18.53;;;12.37;;
63499;SDS011;49654;51.142;14.924;2023-01-29T08:32:38;17.37;;;12.93;;
63499;SDS011;49654;51.142;14.924;2023-01-29T08:35:06;20.73;;;12.70;;
63499;SDS011;49654;51.142;14.924;2023-01-29T08:37:35;20.77;;;13.13;;
63499;SDS011;49654;51.142;14.924;2023-01-29T08:40:02;19.30;;;12.87;;
63499;SDS011;49654;51.142;14.924;2023-01-29T08:42:30;17.93;;;12.90;;
63499;SDS011;49654;51.142;14.924;2023-01-29T08:44:58;19.70;;;13.37;;
63499;SDS011;49654;51.142;14.924;2023-01-29T08:47:25;17.03;;;12.50;;
63499;SDS011;49654;51.142;14.924;2023-01-29T08:49:52;19.33;;;13.93;;
63499;SDS011;49654;51.142;14.924;2023-01-29T08:52:19;19.93;;;12.53;;
63499;SDS011;49654;51.142;14.924;2023-01-29T08:54:46;16.90;;;12.37;;
63499;SDS011;49654;51.142;14.924;2023-01-29T08:57:12;20.67;;;14.47;;
63499;SDS011;49654;51.142;14.924;2023-01-29T08:59:39;18.47;;;13.50;;
63499;SDS011;49654;51.142;14.924;2023-01-29T09:02:09;18.97;;;13.07;;
63499;SDS011;49654;51.142;14.924;2023-01-29T09:04:36;16.27;;;12.33;;
63499;SDS011;49654;51.142;14.924;2023-01-29T09:07:03;20.00;;;13.43;;
63499;SDS011;49654;51.142;14.924;2023-01-29T09:09:30;19.33;;;13.03;;
63499;SDS011;49654;51.142;14.924;2023-01-29T09:11:57;21.00;;;14.07;;
63499;SDS011;49654;51.142;14.924;2023-01-29T09:14:24;18.97;;;13.50;;
63499;SDS011;49654;51.142;14.924;2023-01-29T09:16:52;18.03;;;12.33;;
63499;SDS011;49654;51.142;14.924;2023-01-29T09:19:20;16.47;;;12.23;;
63499;SDS011;49654;51.142;14.924;2023-01-29T09:21:47;20.03;;;13.27;;
63499;SDS011;49654;51.142;14.924;2023-01-29T09:24:14;16.60;;;12.53;;
63499;SDS011;49654;51.142;14.924;2023-01-29T09:26:41;21.63;;;13.80;;
63499;SDS011;49654;51.142;14.924;2023-01-29T09:29:09;17.40;;;12.03;;
63499;SDS011;49654;51.142;14.924;2023-01-29T09:31:36;16.63;;;12.17;;
63499;SDS011;49654;51.142;14.924;2023-01-29T09:34:03;19.50;;;12.93;;
63499;SDS011;49654;51.142;14.924;2023-01-29T09:36:31;15.63;;;12.13;;
63499;SDS011;49654;51.142;14.924;2023-01-29T09:38:58;16.73;;;12.80;;
63499;SDS011;49654;51.142;14.924;2023-01-29T09:41:29;17.37;;;12.13;;
63499;SDS011;49654;51.142;14.924;2023-01-29T09:44:03;18.47;;;12.73;;
63499;SDS011;49654;51.142;14.924;2023-01-29T09:46:39;18.70;;;13.33;;
63499;SDS011;49654;51.142;14.924;2023-01-29T09:49:10;17.63;;;12.30;;
63499;SDS011;49654;51.142;14.924;2023-01-29T09:51:43;18.73;;;12.83;;
63499;SDS011;49654;51.142;14.924;2023-01-29T09:54:16;19.40;;;12.33;;
63499;SDS011;49654;51.142;14.924;2023-01-29T09:56:49;16.83;;;12.20;;
63499;SDS011;49654;51.142;14.924;2023-01-29T09:59:20;16.87;;;12.33;;
63499;SDS011;49654;51.142;14.924;2023-01-29T10:01:52;19.20;;;13.13;;
63499;SDS011;49654;51.142;14.924;2023-01-29T10:04:34;19.57;;;13.30;;
63499;SDS011;49654;51.142;14.924;2023-01-29T10:07:34;19.43;;;12.97;;
63499;SDS011;49654;51.142;14.924;2023-01-29T10:10:29;18.87;;;12.63;;
63499;SDS011;49654;51.142;14.924;2023-01-29T10:13:10;18.03;;;13.47;;
63499;SDS011;49654;51.142;14.924;2023-01-29T10:15:46;15.40;;;11.27;;
63499;SDS011;49654;51.142;14.924;2023-01-29T10:24:37;18.77;;;12.83;;
63499;SDS011;49654;51.142;14.924;2023-01-29T10:27:13;20.60;;;12.77;;
63499;SDS011;49654;51.142;14.924;2023-01-29T10:29:44;18.57;;;13.00;;
63499;SDS011;49654;51.142;14.924;2023-01-29T10:32:19;19.90;;;13.87;;
63499;SDS011;49654;51.142;14.924;2023-01-29T10:34:51;21.53;;;13.03;;
63499;SDS011;49654;51.142;14.924;2023-01-29T10:37:36;17.57;;;12.53;;
63499;SDS011;49654;51.142;14.924;2023-01-29T10:40:26;18.93;;;11.57;;
63499;SDS011;49654;51.142;14.924;2023-01-29T10:43:01;19.60;;;13.73;;
63499;SDS011;49654;51.142;14.924;2023-01-29T10:45:36;19.03;;;13.87;;
63499;SDS011;49654;51.142;14.924;2023-01-29T10:48:27;18.70;;;13.10;;
63499;SDS011;49654;51.142;14.924;2023-01-29T10:51:12;18.37;;;12.27;;
63499;SDS011;49654;51.142;14.924;2023-01-29T10:53:52;18.70;;;13.07;;
63499;SDS011;49654;51.142;14.924;2023-01-29T10:56:35;17.50;;;12.40;;
63499;SDS011;49654;51.142;14.924;2023-01-29T10:59:19;18.13;;;12.33;;
63499;SDS011;49654;51.142;14.924;2023-01-29T11:02:14;17.37;;;12.70;;
63499;SDS011;49654;51.142;14.924;2023-01-29T11:04:44;18.17;;;13.17;;
63499;SDS011;49654;51.142;14.924;2023-01-29T11:07:43;20.53;;;13.33;;
63499;SDS011;49654;51.142;14.924;2023-01-29T11:10:16;21.80;;;15.23;;
63499;SDS011;49654;51.142;14.924;2023-01-29T11:12:49;23.43;;;13.97;;
63499;SDS011;49654;51.142;14.924;2023-01-29T11:15:17;21.73;;;14.40;;
63499;SDS011;49654;51.142;14.924;2023-01-29T11:17:59;15.73;;;11.63;;
63499;SDS011;49654;51.142;14.924;2023-01-29T11:20:28;21.47;;;14.10;;
63499;SDS011;49654;51.142;14.924;2023-01-29T11:22:56;19.83;;;13.53;;
63499;SDS011;49654;51.142;14.924;2023-01-29T11:37:25;23.63;;;15.90;;
63499;SDS011;49654;51.142;14.924;2023-01-29T11:40:42;19.83;;;14.40;;
63499;SDS011;49654;51.142;14.924;2023-01-29T11:46:49;23.87;;;14.73;;
63499;SDS011;49654;51.142;14.924;2023-01-29T11:49:46;22.90;;;15.10;;
63499;SDS011;49654;51.142;14.924;2023-01-29T11:52:32;26.30;;;15.73;;
63499;SDS011;49654;51.142;14.924;2023-01-29T11:58:39;22.83;;;14.37;;
63499;SDS011;49654;51.142;14.924;2023-01-29T12:01:09;21.27;;;14.90;;
63499;SDS011;49654;51.142;14.924;2023-01-29T12:03:54;23.47;;;15.17;;
63499;SDS011;49654;51.142;14.924;2023-01-29T12:06:47;21.57;;;14.67;;
63499;SDS011;49654;51.142;14.924;2023-01-29T12:29:26;23.93;;;15.50;;
63499;SDS011;49654;51.142;14.924;2023-01-29T12:32:02;20.80;;;13.03;;
63499;SDS011;49654;51.142;14.924;2023-01-29T12:34:36;21.73;;;13.67;;
63499;SDS011;49654;51.142;14.924;2023-01-29T12:37:12;19.80;;;13.77;;
63499;SDS011;49654;51.142;14.924;2023-01-29T12:39:46;18.93;;;13.80;;
63499;SDS011;49654;51.142;14.924;2023-01-29T12:42:15;22.67;;;14.53;;
63499;SDS011;49654;51.142;14.924;2023-01-29T12:44:47;24.43;;;13.27;;
63499;SDS011;49654;51.142;14.924;2023-01-29T12:47:18;18.77;;;13.60;;
63499;SDS011;49654;51.142;14.924;2023-01-29T12:49:50;18.97;;;14.13;;
63499;SDS011;49654;51.142;14.924;2023-01-29T12:52:21;20.00;;;13.70;;
63499;SDS011;49654;51.142;14.924;2023-01-29T12:54:55;19.47;;;13.23;;
63499;SDS011;49654;51.142;14.924;2023-01-29T12:57:28;24.80;;;14.50;;
63499;SDS011;49654;51.142;14.924;2023-01-29T13:00:06;21.00;;;14.10;;
63499;SDS011;49654;51.142;14.924;2023-01-29T13:02:38;21.20;;;13.63;;
63499;SDS011;49654;51.142;14.924;2023-01-29T13:05:14;20.00;;;13.83;;
63499;SDS011;49654;51.142;14.924;2023-01-29T13:07:46;18.77;;;13.43;;
63499;SDS011;49654;51.142;14.924;2023-01-29T13:10:18;22.47;;;15.30;;
63499;SDS011;49654;51.142;14.924;2023-01-29T13:12:50;21.53;;;15.53;;
63499;SDS011;49654;51.142;14.924;2023-01-29T13:15:25;21.53;;;14.80;;
63499;SDS011;49654;51.142;14.924;2023-01-29T13:17:57;22.97;;;15.73;;
63499;SDS011;49654;51.142;14.924;2023-01-29T13:20:41;24.70;;;15.67;;
63499;SDS011;49654;51.142;14.924;2023-01-29T13:23:12;20.33;;;15.13;;
63499;SDS011;49654;51.142;14.924;2023-01-29T13:25:45;20.43;;;14.43;;
63499;SDS011;49654;51.142;14.924;2023-01-29T13:28:15;21.90;;;14.33;;
63499;SDS011;49654;51.142;14.924;2023-01-29T13:30:45;19.53;;;13.23;;
63499;SDS011;49654;51.142;14.924;2023-01-29T13:33:16;22.77;;;14.57;;
63499;SDS011;49654;51.142;14.924;2023-01-29T13:35:46;21.13;;;14.33;;
63499;SDS011;49654;51.142;14.924;2023-01-29T13:38:19;21.67;;;14.97;;
63499;SDS011;49654;51.142;14.924;2023-01-29T13:40:50;20.77;;;14.43;;
63499;SDS011;49654;51.142;14.924;2023-01-29T13:43:18;21.00;;;14.40;;
63499;SDS011;49654;51.142;14.924;2023-01-29T13:45:48;20.50;;;14.70;;
63499;SDS011;49654;51.142;14.924;2023-01-29T13:48:20;20.20;;;14.20;;
63499;SDS011;49654;51.142;14.924;2023-01-29T13:50:50;21.97;;;14.83;;
63499;SDS011;49654;51.142;14.924;2023-01-29T13:53:20;23.57;;;14.20;;
63499;SDS011;49654;51.142;14.924;2023-01-29T13:55:49;19.73;;;14.13;;
63499;SDS011;49654;51.142;14.924;2023-01-29T13:58:17;21.70;;;14.63;;
63499;SDS011;49654;51.142;14.924;2023-01-29T14:04:33;24.23;;;14.40;;
63499;SDS011;49654;51.142;14.924;2023-01-29T14:07:00;22.03;;;14.33;;
63499;SDS011;49654;51.142;14.924;2023-01-29T14:09:29;21.00;;;15.00;;
63499;SDS011;49654;51.142;14.924;2023-01-29T14:15:15;23.70;;;15.43;;
63499;SDS011;49654;51.142;14.924;2023-01-29T14:20:55;20.60;;;14.27;;
63499;SDS011;49654;51.142;14.924;2023-01-29T14:23:29;21.83;;;15.80;;
63499;SDS011;49654;51.142;14.924;2023-01-29T14:26:01;25.53;;;17.47;;
63499;SDS011;49654;51.142;14.924;2023-01-29T14:28:31;34.80;;;22.20;;
63499;SDS011;49654;51.142;14.924;2023-01-29T14:31:01;24.23;;;16.80;;
63499;SDS011;49654;51.142;14.924;2023-01-29T14:33:32;21.87;;;16.33;;
63499;SDS011;49654;51.142;14.924;2023-01-29T14:36:04;26.93;;;16.97;;
63499;SDS011;49654;51.142;14.924;2023-01-29T14:38:34;24.03;;;17.30;;
63499;SDS011;49654;51.142;14.924;2023-01-29T14:41:12;22.30;;;16.33;;
63499;SDS011;49654;51.142;14.924;2023-01-29T14:43:50;25.10;;;16.80;;
63499;SDS011;49654;51.142;14.924;2023-01-29T14:49:10;23.83;;;16.63;;
63499;SDS011;49654;51.142;14.924;2023-01-29T14:51:39;22.30;;;16.10;;
63499;SDS011;49654;51.142;14.924;2023-01-29T14:54:13;23.93;;;16.43;;
63499;SDS011;49654;51.142;14.924;2023-01-29T14:56:48;28.63;;;16.80;;
63499;SDS011;49654;51.142;14.924;2023-01-29T14:59:25;23.60;;;16.47;;
63499;SDS011;49654;51.142;14.924;2023-01-29T15:01:57;23.07;;;16.27;;
63499;SDS011;49654;51.142;14.924;2023-01-29T15:04:28;23.10;;;16.53;;
63499;SDS011;49654;51.142;14.924;2023-01-29T15:07:01;25.00;;;16.73;;
63499;SDS011;49654;51.142;14.924;2023-01-29T15:09:34;22.80;;;16.77;;
63499;SDS011;49654;51.142;14.924;2023-01-29T15:12:09;22.17;;;16.57;;
63499;SDS011;49654;51.142;14.924;2023-01-29T15:14:45;22.63;;;16.23;;
63499;SDS011;49654;51.142;14.924;2023-01-29T15:17:20;23.30;;;16.30;;
63499;SDS011;49654;51.142;14.924;2023-01-29T15:19:53;20.00;;;15.23;;
63499;SDS011;49654;51.142;14.924;2023-01-29T15:22:21;22.37;;;15.50;;
63499;SDS011;49654;51.142;14.924;2023-01-29T15:25:03;24.47;;;17.47;;
63499;SDS011;49654;51.142;14.924;2023-01-29T15:27:32;26.20;;;16.73;;
63499;SDS011;49654;51.142;14.924;2023-01-29T15:30:00;23.30;;;16.37;;
63499;SDS011;49654;51.142;14.924;2023-01-29T15:32:32;25.20;;;16.33;;
63499;SDS011;49654;51.142;14.924;2023-01-29T15:35:04;23.40;;;15.83;;
63499;SDS011;49654;51.142;14.924;2023-01-29T15:37:34;20.03;;;15.60;;
63499;SDS011;49654;51.142;14.924;2023-01-29T15:40:02;20.70;;;15.23;;
63499;SDS011;49654;51.142;14.924;2023-01-29T15:42:41;23.80;;;16.50;;
63499;SDS011;49654;51.142;14.924;2023-01-29T15:45:20;21.33;;;15.73;;
63499;SDS011;49654;51.142;14.924;2023-01-29T15:47:49;27.63;;;17.60;;
63499;SDS011;49654;51.142;14.924;2023-01-29T15:50:18;22.03;;;15.00;;
63499;SDS011;49654;51.142;14.924;2023-01-29T15:52:47;24.63;;;16.50;;
63499;SDS011;49654;51.142;14.924;2023-01-29T15:55:15;22.77;;;15.50;;
63499;SDS011;49654;51.142;14.924;2023-01-29T15:57:46;22.97;;;15.73;;
63499;SDS011;49654;51.142;14.924;2023-01-29T16:00:19;22.23;;;15.77;;
63499;SDS011;49654;51.142;14.924;2023-01-29T16:02:50;24.23;;;16.57;;
63499;SDS011;49654;51.142;14.924;2023-01-29T16:05:17;22.23;;;15.97;;
63499;SDS011;49654;51.142;14.924;2023-01-29T16:07:49;25.83;;;16.33;;
63499;SDS011;49654;51.142;14.924;2023-01-29T16:10:18;24.90;;;16.27;;
63499;SDS011;49654;51.142;14.924;2023-01-29T16:12:47;24.33;;;16.87;;
63499;SDS011;49654;51.142;14.924;2023-01-29T16:15:20;24.43;;;16.40;;
63499;SDS011;49654;51.142;14.924;2023-01-29T16:17:55;24.73;;;16.47;;
63499;SDS011;49654;51.142;14.924;2023-01-29T16:23:14;22.07;;;16.43;;
63499;SDS011;49654;51.142;14.924;2023-01-29T16:25:43;25.93;;;16.97;;
63499;SDS011;49654;51.142;14.924;2023-01-29T16:28:11;24.10;;;16.60;;
63499;SDS011;49654;51.142;14.924;2023-01-29T16:30:38;24.30;;;17.57;;
63499;SDS011;49654;51.142;14.924;2023-01-29T16:33:10;25.13;;;16.87;;
63499;SDS011;49654;51.142;14.924;2023-01-29T16:35:39;25.90;;;17.70;;
63499;SDS011;49654;51.142;14.924;2023-01-29T16:38:12;25.93;;;17.50;;
63499;SDS011;49654;51.142;14.924;2023-01-29T16:41:04;24.33;;;17.27;;
63499;SDS011;49654;51.142;14.924;2023-01-29T16:43:47;27.87;;;17.60;;
63499;SDS011;49654;51.142;14.924;2023-01-29T16:49:03;22.13;;;16.00;;
63499;SDS011;49654;51.142;14.924;2023-01-29T16:52:18;24.47;;;16.40;;
63499;SDS011;49654;51.142;14.924;2023-01-29T16:54:48;24.33;;;16.27;;
63499;SDS011;49654;51.142;14.924;2023-01-29T16:57:16;22.07;;;15.77;;